createdAt,value
2023-01-19T00:00:28.208Z,19.80
2023-01-19T00:02:55.004Z,20.13
2023-01-19T00:05:22.074Z,18.63
2023-01-19T00:07:48.585Z,15.20
2023-01-19T00:10:15.149Z,19.80
2023-01-19T00:12:41.614Z,21.60
2023-01-19T00:15:08.713Z,16.67
2023-01-19T00:17:35.274Z,20.95
2023-01-19T00:20:01.897Z,17.60
2023-01-19T00:22:28.359Z,19.55
2023-01-19T00:24:54.833Z,16.58
2023-01-19T00:27:21.291Z,17.13
2023-01-19T00:29:47.768Z,20.27
2023-01-19T00:32:14.373Z,17.88
2023-01-19T00:34:49.646Z,15.52
2023-01-19T00:37:17.053Z,17.90
2023-01-19T00:39:43.848Z,16.70
2023-01-19T00:42:32.508Z,15.38
2023-01-19T00:44:59.093Z,19.40
2023-01-19T00:47:25.854Z,16.92
2023-01-19T00:49:52.372Z,14.32
2023-01-19T00:52:19.632Z,17.37
2023-01-19T00:54:46.139Z,18.30
2023-01-19T00:57:12.687Z,19.17
2023-01-19T00:59:39.238Z,16.25
2023-01-19T01:02:05.978Z,18.98
2023-01-19T01:04:32.631Z,25.17
2023-01-19T01:06:59.089Z,22.00
2023-01-19T01:09:25.609Z,16.90
2023-01-19T01:11:52.079Z,15.30
2023-01-19T01:14:19.353Z,16.85
2023-01-19T01:16:46.145Z,14.43
2023-01-19T01:19:12.609Z,14.63
2023-01-19T01:21:39.272Z,15.00
2023-01-19T01:24:06.101Z,13.82
2023-01-19T01:26:32.591Z,29.55
2023-01-19T01:28:59.132Z,13.17
2023-01-19T01:31:26.016Z,14.05
2023-01-19T01:33:52.586Z,13.73
2023-01-19T01:36:19.268Z,15.35
2023-01-19T01:38:45.787Z,14.10
2023-01-19T01:41:12.424Z,15.00
2023-01-19T01:43:51.590Z,11.05
2023-01-19T01:46:18.459Z,14.20
2023-01-19T01:48:54.919Z,14.30
2023-01-19T01:51:47.061Z,12.23
2023-01-19T01:54:21.588Z,12.77
2023-01-19T01:56:51.215Z,11.93
2023-01-19T01:59:26.137Z,14.23
2023-01-19T02:02:14.347Z,14.00
2023-01-19T02:04:47.462Z,14.18
2023-01-19T02:07:39.711Z,14.07
2023-01-19T02:10:25.084Z,11.80
2023-01-19T02:13:10.496Z,11.65
2023-01-19T02:15:36.934Z,10.88
2023-01-19T02:18:03.858Z,11.48
2023-01-19T02:20:33.269Z,9.03
2023-01-19T02:23:03.730Z,8.27
2023-01-19T02:25:30.701Z,8.55
2023-01-19T02:27:57.290Z,6.65
2023-01-19T02:30:24.206Z,8.38
2023-01-19T02:32:50.685Z,6.30
2023-01-19T02:35:17.339Z,8.57
2023-01-19T02:37:44.967Z,7.82
2023-01-19T02:40:14.997Z,7.07
2023-01-19T02:42:48.473Z,6.68
2023-01-19T02:45:19.876Z,5.57
2023-01-19T02:47:49.285Z,7.38
2023-01-19T02:50:59.502Z,10.73
2023-01-19T02:53:42.724Z,6.72
2023-01-19T02:56:36.746Z,7.35
2023-01-19T02:59:27.167Z,6.50
2023-01-19T03:02:24.648Z,6.35
2023-01-19T03:05:11.180Z,6.88
2023-01-19T03:08:00.075Z,6.47
2023-01-19T03:10:53.461Z,7.18
2023-01-19T03:13:40.110Z,6.77
2023-01-19T03:16:23.823Z,7.03
2023-01-19T03:19:04.930Z,7.45
2023-01-19T03:21:36.030Z,7.07
2023-01-19T03:24:06.297Z,7.97
2023-01-19T03:26:44.025Z,7.30
2023-01-19T03:29:14.036Z,6.82
2023-01-19T03:31:43.416Z,7.05
2023-01-19T03:34:13.393Z,6.00
2023-01-19T03:36:44.527Z,6.78
2023-01-19T03:39:13.945Z,7.30
2023-01-19T03:41:42.441Z,6.57
2023-01-19T03:44:09.276Z,6.78
2023-01-19T03:46:35.888Z,7.80
2023-01-19T03:49:02.461Z,7.15
2023-01-19T03:51:29.588Z,7.00
2023-01-19T03:53:56.130Z,7.32
2023-01-19T03:56:25.137Z,8.05
2023-01-19T03:58:51.870Z,6.80
2023-01-19T04:01:22.925Z,7.40
2023-01-19T04:03:51.074Z,6.50
2023-01-19T04:06:18.221Z,5.97
2023-01-19T04:08:44.761Z,6.68
2023-01-19T04:11:11.580Z,6.47
2023-01-19T04:13:38.063Z,7.20
2023-01-19T04:16:05.784Z,6.23
2023-01-19T04:18:34.883Z,6.57
2023-01-19T04:21:07.379Z,7.80
2023-01-19T04:23:34.450Z,8.35
2023-01-19T04:26:04.118Z,7.63
2023-01-19T04:28:31.230Z,7.43
2023-01-19T04:30:57.897Z,7.60
2023-01-19T04:33:24.664Z,11.15
2023-01-19T04:35:54.377Z,7.28
2023-01-19T04:38:22.601Z,7.53
2023-01-19T04:40:50.039Z,7.17
2023-01-19T04:43:17.277Z,7.38
2023-01-19T04:45:46.585Z,8.80
2023-01-19T04:48:14.014Z,7.43
2023-01-19T04:50:41.523Z,6.88
2023-01-19T04:53:08.721Z,7.73
2023-01-19T04:55:35.177Z,8.20
2023-01-19T04:58:01.726Z,7.40
2023-01-19T05:00:28.228Z,6.75
2023-01-19T05:02:54.895Z,7.55
2023-01-19T05:05:21.679Z,6.63
2023-01-19T05:07:48.175Z,7.75
2023-01-19T05:10:14.632Z,7.30
2023-01-19T05:12:42.196Z,7.55
2023-01-19T05:15:09.688Z,6.00
2023-01-19T05:17:36.560Z,6.17
2023-01-19T05:20:04.361Z,6.93
2023-01-19T05:22:31.070Z,7.45
2023-01-19T05:24:57.562Z,5.45
2023-01-19T05:27:24.051Z,7.50
2023-01-19T05:29:50.473Z,6.50
2023-01-19T05:32:16.991Z,7.00
2023-01-19T05:34:43.421Z,8.73
2023-01-19T05:37:09.944Z,7.45
2023-01-19T05:39:36.480Z,7.72
2023-01-19T05:42:04.153Z,6.73
2023-01-19T05:44:30.714Z,7.57
2023-01-19T05:46:57.214Z,7.47
2023-01-19T05:49:23.791Z,11.45
2023-01-19T05:51:50.236Z,8.57
2023-01-19T05:54:16.729Z,7.60
2023-01-19T05:56:43.669Z,9.23
2023-01-19T05:59:10.921Z,14.40
2023-01-19T06:01:39.883Z,8.30
2023-01-19T06:04:06.786Z,10.95
2023-01-19T06:06:33.347Z,7.60
2023-01-19T06:08:59.848Z,6.65
2023-01-19T06:11:26.435Z,10.10
2023-01-19T06:13:52.975Z,7.20
2023-01-19T06:16:19.558Z,8.85
2023-01-19T06:18:46.118Z,9.57
2023-01-19T06:21:14.275Z,8.45
2023-01-19T06:23:41.343Z,8.77
2023-01-19T06:26:08.292Z,11.65
2023-01-19T06:28:34.786Z,9.05
2023-01-19T06:31:01.801Z,16.90
2023-01-19T06:33:28.690Z,14.32
2023-01-19T06:35:55.721Z,9.05
2023-01-19T06:38:22.488Z,10.63
2023-01-19T06:41:02.619Z,10.68
2023-01-19T06:43:29.324Z,7.33
2023-01-19T06:45:57.183Z,8.40
2023-01-19T06:48:24.068Z,8.88
2023-01-19T06:50:50.554Z,8.10
2023-01-19T06:53:17.608Z,13.57
2023-01-19T06:55:44.144Z,18.13
2023-01-19T06:58:11.494Z,8.60
2023-01-19T07:00:38.535Z,18.05
2023-01-19T07:03:08.449Z,13.85
2023-01-19T07:05:36.397Z,12.07
2023-01-19T07:08:03.936Z,11.20
2023-01-19T07:11:24.756Z,9.85
2023-01-19T07:13:17.513Z,9.35
2023-01-19T07:15:44.097Z,9.85
2023-01-19T07:18:10.657Z,9.90
2023-01-19T07:20:38.171Z,9.43
2023-01-19T07:23:05.081Z,17.00
2023-01-19T07:25:31.567Z,9.32
2023-01-19T07:28:01.638Z,12.13
2023-01-19T07:30:28.693Z,9.77
2023-01-19T07:32:57.515Z,11.23
2023-01-19T07:35:24.857Z,23.13
2023-01-19T07:37:51.395Z,10.25
2023-01-19T07:40:18.031Z,9.18
2023-01-19T07:42:49.204Z,8.65
2023-01-19T07:45:20.807Z,19.53
2023-01-19T07:47:49.933Z,10.88
2023-01-19T07:50:17.732Z,13.88
2023-01-19T07:52:44.725Z,14.82
2023-01-19T07:55:11.302Z,9.27
2023-01-19T07:57:37.788Z,11.10
2023-01-19T08:00:05.833Z,9.25
2023-01-19T08:02:34.006Z,16.20
2023-01-19T08:05:00.447Z,9.38
2023-01-19T08:07:27.175Z,10.60
2023-01-19T08:09:53.866Z,11.43
2023-01-19T08:12:20.461Z,12.00
2023-01-19T08:14:46.960Z,11.95
2023-01-19T08:17:14.004Z,8.77
2023-01-19T08:19:41.675Z,10.60
2023-01-19T08:22:08.293Z,10.03
2023-01-19T08:24:34.817Z,17.25
2023-01-19T08:27:03.557Z,11.75
2023-01-19T08:29:33.763Z,10.68
2023-01-19T08:32:02.195Z,10.30
2023-01-19T08:34:31.037Z,9.30
2023-01-19T08:36:58.296Z,17.10
2023-01-19T08:39:25.137Z,10.00
2023-01-19T08:41:52.500Z,10.70
2023-01-19T08:44:19.034Z,14.00
2023-01-19T08:46:45.528Z,14.00
2023-01-19T08:49:12.098Z,10.32
2023-01-19T08:51:38.663Z,9.90
2023-01-19T08:54:05.277Z,9.88
2023-01-19T08:56:32.512Z,12.70
2023-01-19T08:59:08.724Z,9.23
2023-01-19T09:01:37.337Z,12.70
2023-01-19T09:04:04.034Z,11.38
2023-01-19T09:06:30.610Z,12.50
2023-01-19T09:08:57.776Z,12.63
2023-01-19T09:11:24.469Z,18.40
2023-01-19T09:13:51.271Z,17.27
2023-01-19T09:16:18.045Z,13.88
2023-01-19T09:18:45.969Z,8.68
2023-01-19T09:21:13.764Z,13.10
2023-01-19T09:23:40.423Z,10.57
2023-01-19T09:26:07.368Z,13.23
2023-01-19T09:28:34.196Z,13.32
2023-01-19T09:31:05.306Z,8.75
2023-01-19T09:33:31.839Z,13.32
2023-01-19T09:35:58.510Z,9.57
2023-01-19T09:38:25.907Z,9.73
2023-01-19T09:40:56.001Z,12.02
2023-01-19T09:43:34.716Z,15.20
2023-01-19T09:46:15.303Z,11.73
2023-01-19T09:48:52.163Z,20.47
2023-01-19T09:51:24.111Z,7.55
2023-01-19T09:54:02.275Z,11.80
2023-01-19T09:56:31.085Z,10.25
2023-01-19T09:58:59.128Z,8.15
2023-01-19T10:01:46.768Z,7.57
2023-01-19T10:04:24.589Z,12.20
2023-01-19T10:06:59.457Z,10.98
2023-01-19T10:09:38.925Z,8.77
2023-01-19T10:12:18.445Z,11.10
2023-01-19T10:14:53.029Z,8.17
2023-01-19T10:17:46.239Z,6.38
2023-01-19T10:20:33.416Z,14.48
2023-01-19T10:23:00.929Z,7.60
2023-01-19T10:25:28.002Z,16.83
2023-01-19T10:27:54.523Z,8.83
2023-01-19T10:30:27.904Z,11.63
2023-01-19T10:32:54.530Z,13.45
2023-01-19T10:35:26.829Z,9.65
2023-01-19T10:37:58.518Z,13.18
2023-01-19T10:40:31.108Z,12.10
2023-01-19T10:42:58.467Z,9.60
2023-01-19T10:45:30.056Z,13.73
2023-01-19T10:48:06.168Z,15.02
2023-01-19T10:50:35.118Z,8.48
2023-01-19T10:53:04.731Z,16.17
2023-01-19T10:55:33.559Z,11.18
2023-01-19T10:58:01.239Z,7.30
2023-01-19T11:00:39.065Z,11.93
2023-01-19T11:03:23.212Z,14.90
2023-01-19T11:05:50.275Z,10.97
2023-01-19T11:08:44.266Z,15.95
2023-01-19T11:11:12.487Z,10.02
2023-01-19T11:13:43.605Z,11.88
2023-01-19T11:16:29.141Z,14.02
2023-01-19T11:18:57.189Z,8.53
2023-01-19T11:21:29.124Z,10.02
2023-01-19T11:23:59.019Z,14.52
2023-01-19T11:26:27.661Z,11.35
2023-01-19T11:28:56.569Z,13.73
2023-01-19T11:31:28.866Z,15.80
2023-01-19T11:33:58.349Z,10.35
2023-01-19T11:36:30.373Z,8.45
2023-01-19T11:38:59.962Z,9.43
2023-01-19T11:41:29.724Z,8.43
2023-01-19T11:44:14.606Z,12.70
2023-01-19T11:46:44.385Z,8.52
2023-01-19T11:49:38.495Z,6.82
2023-01-19T11:52:28.282Z,7.03
2023-01-19T11:55:01.627Z,9.63
2023-01-19T11:57:28.206Z,6.13
2023-01-19T11:59:55.343Z,7.20
2023-01-19T12:02:29.239Z,12.25
2023-01-19T12:05:04.845Z,10.43
2023-01-19T12:07:35.834Z,9.93
2023-01-19T12:10:20.887Z,5.83
2023-01-19T12:12:47.783Z,9.10
2023-01-19T12:15:23.143Z,7.38
2023-01-19T12:17:52.216Z,6.85
2023-01-19T12:20:40.361Z,7.07
2023-01-19T12:23:09.636Z,7.30
2023-01-19T12:25:56.739Z,6.05
2023-01-19T12:28:30.210Z,10.10
2023-01-19T12:30:59.039Z,6.05
2023-01-19T12:33:29.056Z,7.65
2023-01-19T12:35:58.539Z,5.77
2023-01-19T12:38:47.701Z,9.75
2023-01-19T12:41:34.915Z,5.80
2023-01-19T12:44:19.184Z,5.65
2023-01-19T12:46:50.631Z,5.80
2023-01-19T12:49:32.397Z,4.93
2023-01-19T12:52:19.648Z,5.60
2023-01-19T12:55:13.417Z,6.03
2023-01-19T12:57:55.611Z,5.90
2023-01-19T13:00:22.035Z,5.70
2023-01-19T13:02:51.329Z,5.83
2023-01-19T13:05:39.827Z,6.13
2023-01-19T13:08:06.491Z,6.78
2023-01-19T13:11:05.455Z,5.97
2023-01-19T13:13:31.974Z,7.40
2023-01-19T13:16:18.432Z,6.07
2023-01-19T13:18:48.403Z,5.70
2023-01-19T13:21:27.074Z,6.43
2023-01-19T13:23:56.762Z,6.57
2023-01-19T13:26:26.598Z,5.65
2023-01-19T13:29:15.660Z,5.90
2023-01-19T13:31:44.727Z,5.82
2023-01-19T13:34:16.817Z,6.25
2023-01-19T13:36:51.887Z,5.18
2023-01-19T13:39:30.682Z,5.47
2023-01-19T13:42:01.972Z,5.60
2023-01-19T13:44:33.299Z,5.72
2023-01-19T13:47:03.178Z,5.97
2023-01-19T13:49:34.063Z,5.93
2023-01-19T13:52:28.110Z,13.93
2023-01-19T13:54:57.019Z,5.10
2023-01-19T13:57:28.327Z,6.30
2023-01-19T14:00:12.912Z,5.55
2023-01-19T14:03:01.724Z,4.90
2023-01-19T14:05:49.328Z,6.80
2023-01-19T14:08:18.085Z,5.23
2023-01-19T14:10:46.019Z,4.75
2023-01-19T14:13:19.870Z,5.05
2023-01-19T14:15:49.235Z,4.80
2023-01-19T14:18:18.898Z,6.45
2023-01-19T14:21:02.034Z,5.43
2023-01-19T14:24:06.489Z,4.47
2023-01-19T14:26:46.532Z,5.57
2023-01-19T14:29:17.638Z,6.07
2023-01-19T14:31:48.972Z,5.28
2023-01-19T14:34:45.129Z,4.87
2023-01-19T14:37:25.811Z,17.50
2023-01-19T14:40:10.767Z,9.63
2023-01-19T14:42:44.306Z,4.90
2023-01-19T14:45:28.690Z,5.45
2023-01-19T14:47:59.963Z,7.23
2023-01-19T14:50:36.775Z,5.57
2023-01-19T14:53:15.583Z,4.22
2023-01-19T14:55:53.083Z,3.92
2023-01-19T14:58:21.302Z,4.15
2023-01-19T15:00:48.820Z,3.23
2023-01-19T15:03:15.932Z,3.63
2023-01-19T15:05:45.131Z,4.90
2023-01-19T15:08:16.764Z,3.60
2023-01-19T15:10:44.015Z,3.60
2023-01-19T15:13:20.453Z,3.77
2023-01-19T15:15:47.158Z,5.30
2023-01-19T15:18:17.216Z,4.35
2023-01-19T15:20:43.841Z,5.95
2023-01-19T15:23:11.287Z,5.60
2023-01-19T15:25:41.470Z,3.07
2023-01-19T15:28:17.676Z,2.92
2023-01-19T15:30:44.632Z,3.13
2023-01-19T15:33:19.521Z,3.25
2023-01-19T15:35:46.005Z,4.85
2023-01-19T15:38:12.445Z,2.97
2023-01-19T15:40:39.147Z,4.28
2023-01-19T15:43:05.782Z,10.20
2023-01-19T15:46:02.437Z,9.70
2023-01-19T15:48:29.056Z,7.50
2023-01-19T15:50:55.538Z,6.03
2023-01-19T15:53:24.111Z,8.07
2023-01-19T15:55:52.859Z,7.90
2023-01-19T15:58:20.711Z,5.95
2023-01-19T16:00:55.328Z,6.68
2023-01-19T16:03:22.212Z,6.23
2023-01-19T16:05:48.893Z,6.68
2023-01-19T16:08:15.968Z,9.23
2023-01-19T16:10:42.796Z,6.15
2023-01-19T16:13:11.284Z,7.40
2023-01-19T16:15:39.560Z,6.80
2023-01-19T16:18:06.515Z,7.88
2023-01-19T16:20:33.221Z,6.13
2023-01-19T16:23:13.561Z,9.07
2023-01-19T16:25:41.208Z,7.25
2023-01-19T16:28:08.369Z,6.70
2023-01-19T16:30:34.974Z,6.63
2023-01-19T16:33:01.610Z,7.15
2023-01-19T16:35:28.104Z,6.82
2023-01-19T16:37:54.575Z,8.02
2023-01-19T16:40:21.126Z,7.07
2023-01-19T16:42:47.639Z,12.82
2023-01-19T16:45:14.238Z,37.40
2023-01-19T16:47:40.991Z,23.65
2023-01-19T16:50:11.225Z,28.33
2023-01-19T16:52:38.426Z,42.47
2023-01-19T16:55:09.279Z,22.67
2023-01-19T16:57:36.954Z,16.50
2023-01-19T17:00:04.199Z,9.07
2023-01-19T17:02:30.743Z,11.98
2023-01-19T17:05:00.118Z,21.83
2023-01-19T17:07:27.774Z,11.32
2023-01-19T17:09:54.453Z,12.35
2023-01-19T17:12:20.910Z,15.73
2023-01-19T17:14:47.602Z,17.70
2023-01-19T17:17:14.578Z,16.10
2023-01-19T17:19:41.094Z,21.58
2023-01-19T17:22:07.651Z,18.17
2023-01-19T17:24:34.129Z,32.28
2023-01-19T17:27:00.628Z,19.38
2023-01-19T17:29:27.182Z,17.97
2023-01-19T17:31:53.664Z,19.73
2023-01-19T17:34:20.146Z,26.13
2023-01-19T17:36:46.648Z,27.45
2023-01-19T17:39:14.922Z,24.73
2023-01-19T17:41:41.646Z,19.63
2023-01-19T17:44:10.357Z,24.60
2023-01-19T17:46:38.212Z,30.63
2023-01-19T17:49:06.688Z,26.83
2023-01-19T17:51:33.756Z,29.25
2023-01-19T17:54:00.560Z,32.13
2023-01-19T17:56:30.218Z,26.92
2023-01-19T17:58:57.844Z,27.55
2023-01-19T18:01:27.073Z,29.42
2023-01-19T18:03:56.702Z,36.40
2023-01-19T18:06:23.877Z,32.87
2023-01-19T18:08:50.971Z,35.92
2023-01-19T18:11:20.215Z,33.03
2023-01-19T18:13:48.872Z,28.90
2023-01-19T18:16:18.440Z,35.47
2023-01-19T18:18:44.937Z,29.00
2023-01-19T18:21:14.050Z,37.05
2023-01-19T18:23:43.294Z,33.90
2023-01-19T18:26:11.895Z,29.58
2023-01-19T18:28:38.472Z,32.95
2023-01-19T18:31:13.792Z,29.40
2023-01-19T18:33:40.714Z,34.15
2023-01-19T18:36:08.116Z,32.75
2023-01-19T18:38:35.559Z,33.78
2023-01-19T18:41:06.593Z,28.25
2023-01-19T18:43:33.584Z,34.10
2023-01-19T18:46:00.318Z,36.70
2023-01-19T18:48:26.876Z,35.47
2023-01-19T18:50:54.048Z,34.60
2023-01-19T18:53:20.893Z,33.65
2023-01-19T18:55:59.406Z,32.37
2023-01-19T18:58:28.563Z,32.80
2023-01-19T19:00:56.552Z,31.77
2023-01-19T19:03:23.392Z,30.15
2023-01-19T19:05:50.181Z,33.80
2023-01-19T19:08:16.734Z,33.93
2023-01-19T19:10:44.148Z,34.45
2023-01-19T19:13:16.590Z,28.80
2023-01-19T19:15:44.455Z,32.28
2023-01-19T19:18:13.649Z,31.60
2023-01-19T19:20:42.016Z,29.47
2023-01-19T19:23:08.594Z,37.45
2023-01-19T19:25:35.111Z,27.35
2023-01-19T19:28:01.590Z,29.02
2023-01-19T19:30:28.250Z,27.05
2023-01-19T19:32:56.415Z,28.00
2023-01-19T19:35:26.217Z,18.23
2023-01-19T19:37:57.481Z,16.55
2023-01-19T19:40:26.483Z,16.10
2023-01-19T19:42:53.127Z,18.02
2023-01-19T19:45:19.671Z,15.37
2023-01-19T19:47:46.198Z,13.90
2023-01-19T19:50:13.130Z,14.73
2023-01-19T19:52:43.135Z,11.75
2023-01-19T19:55:10.871Z,12.52
2023-01-19T19:57:37.658Z,10.73
2023-01-19T20:00:05.646Z,12.68
2023-01-19T20:02:32.646Z,11.32
2023-01-19T20:04:59.267Z,11.60
2023-01-19T20:07:25.819Z,10.50
2023-01-19T20:09:53.521Z,9.03
2023-01-19T20:12:19.979Z,9.55
2023-01-19T20:14:46.619Z,10.05
2023-01-19T20:17:13.133Z,10.10
2023-01-19T20:19:39.650Z,9.25
2023-01-19T20:22:06.979Z,8.17
2023-01-19T20:24:33.473Z,8.00
2023-01-19T20:26:59.996Z,9.07
2023-01-19T20:29:26.632Z,8.57
2023-01-19T20:31:55.248Z,7.88
2023-01-19T20:34:25.155Z,9.17
2023-01-19T20:36:53.754Z,8.13
2023-01-19T20:39:22.006Z,8.23
2023-01-19T20:41:50.851Z,7.85
2023-01-19T20:44:21.063Z,8.73
2023-01-19T20:46:48.034Z,7.87
2023-01-19T20:49:15.092Z,8.23
2023-01-19T20:51:44.857Z,7.40
2023-01-19T20:54:12.004Z,7.43
2023-01-19T20:56:38.832Z,7.68
2023-01-19T20:59:05.290Z,7.90
2023-01-19T21:01:31.997Z,6.85
2023-01-19T21:03:58.581Z,8.10
2023-01-19T21:06:25.714Z,7.85
2023-01-19T21:08:52.558Z,9.90
2023-01-19T21:11:21.071Z,8.93
2023-01-19T21:13:48.802Z,6.85
2023-01-19T21:16:15.649Z,8.25
2023-01-19T21:18:42.287Z,8.13
2023-01-19T21:21:14.912Z,7.68
2023-01-19T21:23:47.579Z,7.10
2023-01-19T21:26:14.682Z,6.97
2023-01-19T21:28:41.520Z,7.88
2023-01-19T21:31:13.028Z,7.40
2023-01-19T21:33:40.693Z,7.80
2023-01-19T21:36:08.195Z,7.10
2023-01-19T21:38:37.051Z,7.38
2023-01-19T21:41:09.666Z,7.40
2023-01-19T21:43:38.943Z,7.45
2023-01-19T21:46:13.587Z,10.45
2023-01-19T21:48:41.599Z,8.37
2023-01-19T21:51:08.724Z,9.15
2023-01-19T21:53:35.274Z,10.20
2023-01-19T21:56:01.768Z,10.07
2023-01-19T21:58:28.287Z,9.38
2023-01-19T22:01:05.568Z,9.87
2023-01-19T22:03:32.296Z,10.15
2023-01-19T22:06:07.173Z,9.55
2023-01-19T22:08:34.261Z,8.68
2023-01-19T22:11:08.885Z,9.65
2023-01-19T22:13:36.347Z,7.67
2023-01-19T22:16:04.716Z,8.57
2023-01-19T22:18:31.276Z,9.35
2023-01-19T22:21:07.760Z,8.40
2023-01-19T22:23:34.418Z,8.68
2023-01-19T22:26:00.914Z,8.47
2023-01-19T22:28:27.365Z,8.32
2023-01-19T22:30:53.887Z,10.00
2023-01-19T22:33:20.390Z,10.25
2023-01-19T22:35:46.849Z,9.50
2023-01-19T22:38:13.278Z,8.10
2023-01-19T22:40:39.765Z,9.57
2023-01-19T22:43:06.252Z,10.35
2023-01-19T22:45:32.703Z,8.32
2023-01-19T22:47:59.270Z,10.82
2023-01-19T22:50:25.685Z,8.73
2023-01-19T22:52:55.577Z,9.27
2023-01-19T22:55:22.034Z,9.38
2023-01-19T22:57:48.498Z,9.82
2023-01-19T23:00:15.394Z,8.88
2023-01-19T23:02:41.874Z,8.70
2023-01-19T23:05:08.425Z,8.98
2023-01-19T23:07:34.979Z,9.50
2023-01-19T23:10:01.428Z,8.30
2023-01-19T23:12:27.856Z,11.40
2023-01-19T23:14:54.302Z,9.00
2023-01-19T23:17:20.786Z,9.18
2023-01-19T23:19:47.292Z,10.20
2023-01-19T23:22:13.787Z,9.02
2023-01-19T23:24:40.324Z,8.88
2023-01-19T23:27:06.809Z,8.27
2023-01-19T23:29:33.301Z,9.20
2023-01-19T23:31:59.899Z,11.52
2023-01-19T23:34:26.470Z,9.90
2023-01-19T23:36:52.942Z,10.85
2023-01-19T23:39:21.633Z,9.57
2023-01-19T23:41:49.157Z,9.23
2023-01-19T23:44:17.017Z,8.77
2023-01-19T23:46:44.016Z,8.73
2023-01-19T23:49:10.843Z,9.63
2023-01-19T23:51:39.079Z,8.83
2023-01-19T23:54:05.587Z,9.70
2023-01-19T23:56:34.292Z,10.27
2023-01-19T23:59:03.620Z,8.73
